createdAt,value
2019-03-18T00:00:09.281Z,2.90
2019-03-18T00:01:09.203Z,2.87
2019-03-18T00:02:09.267Z,2.79
2019-03-18T00:03:09.184Z,2.79
2019-03-18T00:04:09.280Z,2.81
2019-03-18T00:05:09.198Z,2.77
2019-03-18T00:06:09.189Z,2.79
2019-03-18T00:07:09.134Z,2.71
2019-03-18T00:08:09.205Z,2.74
2019-03-18T00:09:09.121Z,2.77
2019-03-18T00:10:09.242Z,2.66
2019-03-18T00:11:09.103Z,2.77
2019-03-18T00:12:09.124Z,2.76
2019-03-18T00:13:09.074Z,2.66
2019-03-18T00:14:09.144Z,2.76
2019-03-18T00:15:09.079Z,2.74
2019-03-18T00:16:09.165Z,2.73
2019-03-18T00:17:09.028Z,2.73
2019-03-18T00:18:09.068Z,2.69
2019-03-18T00:19:09.005Z,2.74
2019-03-18T00:20:09.122Z,2.68
2019-03-18T00:21:08.998Z,2.71
2019-03-18T00:22:09.094Z,2.74
2019-03-18T00:23:08.977Z,2.71
2019-03-18T00:24:09.012Z,2.69
2019-03-18T00:25:08.942Z,2.73
2019-03-18T00:26:09.054Z,2.76
2019-03-18T00:27:08.926Z,2.77
2019-03-18T00:29:10.030Z,2.66
2019-03-18T00:30:08.949Z,2.74
2019-03-18T00:31:08.954Z,2.69
2019-03-18T00:32:08.971Z,2.79
2019-03-18T00:33:08.867Z,2.73
2019-03-18T00:34:08.977Z,2.86
2019-03-18T00:35:08.843Z,2.79
2019-03-18T00:36:08.909Z,2.74
2019-03-18T00:37:08.819Z,2.76
2019-03-18T00:38:08.906Z,2.73
2019-03-18T00:39:08.801Z,2.69
2019-03-18T00:41:09.943Z,2.71
2019-03-18T00:42:08.820Z,2.74
2019-03-18T00:43:08.755Z,2.80
2019-03-18T00:44:08.845Z,2.80
2019-03-18T00:45:14.571Z,2.71
2019-03-18T00:46:09.797Z,2.77
2019-03-18T00:47:08.710Z,2.76
2019-03-18T00:48:08.763Z,2.74
2019-03-18T00:49:08.697Z,2.73
2019-03-18T00:50:08.782Z,2.74
2019-03-18T00:51:08.696Z,2.63
2019-03-18T00:52:09.638Z,2.79
2019-03-18T00:53:08.656Z,2.69
2019-03-18T00:54:08.706Z,2.71
2019-03-18T00:55:08.625Z,2.71
2019-03-18T00:56:09.670Z,2.63
2019-03-18T00:57:08.645Z,2.58
2019-03-18T00:58:08.656Z,2.58
2019-03-18T00:59:08.578Z,2.58
2019-03-18T01:00:08.641Z,2.61
2019-03-18T01:01:08.559Z,2.59
2019-03-18T01:02:08.695Z,2.61
2019-03-18T01:03:08.558Z,2.53
2019-03-18T01:04:08.573Z,2.58
2019-03-18T01:05:08.516Z,2.58
2019-03-18T01:06:08.577Z,2.56
2019-03-18T01:07:08.519Z,2.59
2019-03-18T01:08:08.618Z,2.61
2019-03-18T01:09:08.479Z,2.62
2019-03-18T01:10:08.510Z,2.58
2019-03-18T01:11:08.491Z,2.62
2019-03-18T01:12:08.558Z,2.62
2019-03-18T01:13:08.429Z,2.65
2019-03-18T01:14:08.538Z,2.73
2019-03-18T01:15:08.408Z,2.63
2019-03-18T01:16:08.450Z,2.74
2019-03-18T01:17:08.417Z,2.77
2019-03-18T01:18:08.460Z,2.74
2019-03-18T01:19:08.366Z,2.74
2019-03-18T01:20:08.474Z,2.68
2019-03-18T01:21:08.340Z,2.66
2019-03-18T01:22:08.413Z,2.66
2019-03-18T01:23:08.334Z,2.66
2019-03-18T01:24:08.422Z,2.71
2019-03-18T01:25:08.299Z,2.62
2019-03-18T01:26:08.419Z,2.62
2019-03-18T01:27:08.325Z,2.66
2019-03-18T01:28:08.361Z,2.62
2019-03-18T01:29:08.253Z,2.65
2019-03-18T01:30:08.338Z,2.65
2019-03-18T01:31:08.238Z,2.66
2019-03-18T01:32:08.257Z,2.69
2019-03-18T01:33:08.243Z,2.59
2019-03-18T01:34:08.279Z,2.74
2019-03-18T01:35:08.197Z,2.65
2019-03-18T01:36:08.279Z,2.59
2019-03-18T01:37:08.168Z,2.59
2019-03-18T01:38:08.221Z,2.74
2019-03-18T01:39:08.146Z,2.69
2019-03-18T01:40:08.206Z,2.66
2019-03-18T01:41:08.128Z,2.66
2019-03-18T01:42:08.213Z,2.71
2019-03-18T01:43:08.168Z,2.77
2019-03-18T01:44:08.281Z,2.76
2019-03-18T01:45:08.079Z,2.79
2019-03-18T01:46:08.142Z,2.77
2019-03-18T01:47:08.060Z,2.79
2019-03-18T01:48:08.223Z,2.76
2019-03-18T01:49:08.042Z,2.77
2019-03-18T01:50:08.070Z,2.74
2019-03-18T01:51:08.031Z,2.74
2019-03-18T01:52:08.082Z,2.79
2019-03-18T01:53:08.026Z,2.76
2019-03-18T01:54:08.100Z,2.80
2019-03-18T01:55:07.980Z,2.83
2019-03-18T01:57:09.085Z,2.76
2019-03-18T01:58:08.054Z,2.76
2019-03-18T01:59:07.970Z,2.76
2019-03-18T02:00:08.031Z,2.74
2019-03-18T02:01:07.905Z,2.80
2019-03-18T02:02:07.950Z,2.74
2019-03-18T02:03:07.889Z,2.76
2019-03-18T02:04:08.001Z,2.83
2019-03-18T02:05:07.867Z,2.90
2019-03-18T02:06:07.978Z,2.94
2019-03-18T02:07:07.850Z,2.95
2019-03-18T02:08:07.900Z,2.97
2019-03-18T02:09:07.847Z,2.97
2019-03-18T02:11:08.924Z,3.05
2019-03-18T02:12:07.927Z,3.08
2019-03-18T02:13:07.776Z,3.10
2019-03-18T02:14:07.858Z,3.07
2019-03-18T02:15:07.757Z,3.04
2019-03-18T02:16:07.836Z,3.13
2019-03-18T02:17:07.743Z,3.07
2019-03-18T02:18:07.753Z,3.05
2019-03-18T02:20:08.916Z,3.10
2019-03-18T02:21:07.824Z,3.07
2019-03-18T02:22:07.901Z,3.12
2019-03-18T02:23:07.803Z,3.05
2019-03-18T02:24:07.860Z,3.07
2019-03-18T02:25:07.797Z,3.10
2019-03-18T02:27:08.759Z,3.22
2019-03-18T02:28:07.713Z,3.10
2019-03-18T02:29:07.631Z,3.22
2019-03-18T02:30:07.679Z,3.19
2019-03-18T02:31:07.591Z,3.20
2019-03-18T02:32:07.638Z,3.33
2019-03-18T02:33:07.567Z,3.23
2019-03-18T02:34:07.659Z,3.30
2019-03-18T02:36:08.716Z,3.30
2019-03-18T02:37:07.645Z,3.31
2019-03-18T02:38:07.710Z,3.31
2019-03-18T02:39:07.622Z,3.30
2019-03-18T02:40:07.753Z,3.39
2019-03-18T02:41:07.604Z,3.42
2019-03-18T02:42:07.519Z,3.34
2019-03-18T02:43:07.455Z,3.35
2019-03-18T02:44:07.517Z,3.44
2019-03-18T02:45:07.452Z,3.39
2019-03-18T02:46:10.442Z,3.34
2019-03-18T02:47:07.406Z,3.35
2019-03-18T02:48:07.446Z,3.46
2019-03-18T02:49:07.390Z,3.46
2019-03-18T02:50:07.495Z,3.45
2019-03-18T02:51:07.418Z,3.37
2019-03-18T02:52:07.488Z,3.31
2019-03-18T02:53:07.373Z,3.41
2019-03-18T02:54:07.383Z,3.45
2019-03-18T02:55:07.323Z,3.45
2019-03-18T02:56:08.460Z,3.42
2019-03-18T02:57:07.300Z,3.44
2019-03-18T02:58:07.452Z,3.42
2019-03-18T02:59:07.293Z,3.44
2019-03-18T03:00:07.344Z,3.44
2019-03-18T03:01:07.293Z,3.42
2019-03-18T03:02:07.346Z,3.45
2019-03-18T03:03:07.235Z,3.41
2019-03-18T03:04:07.257Z,3.41
2019-03-18T03:05:07.217Z,3.45
2019-03-18T03:06:07.295Z,3.42
2019-03-18T03:07:07.208Z,3.42
2019-03-18T03:08:07.291Z,3.46
2019-03-18T03:09:07.170Z,3.42
2019-03-18T03:10:07.214Z,3.44
2019-03-18T03:11:07.185Z,3.49
2019-03-18T03:12:07.213Z,3.39
2019-03-18T03:13:07.128Z,3.45
2019-03-18T03:14:07.222Z,3.52
2019-03-18T03:15:07.107Z,3.50
2019-03-18T03:16:07.162Z,3.45
2019-03-18T03:17:07.083Z,3.44
2019-03-18T03:18:07.168Z,3.42
2019-03-18T03:19:07.080Z,3.42
2019-03-18T03:20:07.160Z,3.49
2019-03-18T03:21:07.069Z,3.41
2019-03-18T03:22:07.125Z,3.52
2019-03-18T03:23:07.027Z,3.45
2019-03-18T03:24:07.084Z,3.44
2019-03-18T03:25:07.000Z,3.49
2019-03-18T03:26:07.105Z,3.39
2019-03-18T03:27:07.002Z,3.42
2019-03-18T03:28:07.011Z,3.45
2019-03-18T03:29:06.948Z,3.41
2019-03-18T03:30:07.025Z,3.42
2019-03-18T03:31:06.932Z,3.37
2019-03-18T03:32:07.076Z,3.42
2019-03-18T03:33:06.925Z,3.42
2019-03-18T03:34:13.030Z,3.49
2019-03-18T03:35:07.912Z,3.44
2019-03-18T03:36:06.964Z,3.44
2019-03-18T03:37:06.906Z,3.44
2019-03-18T03:38:06.978Z,3.41
2019-03-18T03:39:06.839Z,3.41
2019-03-18T03:40:06.908Z,3.42
2019-03-18T03:41:06.821Z,3.44
2019-03-18T03:42:06.932Z,3.46
2019-03-18T03:43:06.796Z,3.33
2019-03-18T03:44:06.816Z,3.42
2019-03-18T03:45:06.776Z,3.39
2019-03-18T03:46:06.830Z,3.41
2019-03-18T03:47:06.815Z,3.41
2019-03-18T03:48:06.840Z,3.34
2019-03-18T03:49:06.741Z,3.39
2019-03-18T03:50:06.890Z,3.37
2019-03-18T03:51:06.710Z,3.39
2019-03-18T03:52:06.799Z,3.28
2019-03-18T03:53:06.689Z,3.42
2019-03-18T03:54:06.790Z,3.33
2019-03-18T03:55:06.681Z,3.42
2019-03-18T03:56:06.693Z,3.39
2019-03-18T03:57:06.654Z,3.35
2019-03-18T03:58:06.738Z,3.41
2019-03-18T03:59:06.643Z,3.44
2019-03-18T04:00:06.730Z,3.31
2019-03-18T04:01:06.606Z,3.41
2019-03-18T04:02:06.637Z,3.30
2019-03-18T04:03:06.605Z,3.41
2019-03-18T04:04:06.657Z,3.37
2019-03-18T04:05:06.561Z,3.31
2019-03-18T04:06:06.688Z,3.28
2019-03-18T04:07:06.545Z,3.33
2019-03-18T04:08:06.622Z,3.30
2019-03-18T04:09:06.517Z,3.26
2019-03-18T04:10:06.589Z,3.31
2019-03-18T04:11:08.502Z,3.26
2019-03-18T04:12:06.603Z,3.31
2019-03-18T04:13:06.508Z,3.23
2019-03-18T04:15:07.573Z,3.30
2019-03-18T04:16:06.529Z,3.34
2019-03-18T04:17:06.419Z,3.31
2019-03-18T04:18:07.494Z,3.34
2019-03-18T04:19:06.406Z,3.31
2019-03-18T04:20:06.449Z,3.31
2019-03-18T04:21:06.394Z,3.28
2019-03-18T04:23:07.487Z,3.34
2019-03-18T04:24:06.400Z,3.42
2019-03-18T04:25:06.337Z,3.28
2019-03-18T04:27:07.440Z,3.33
2019-03-18T04:28:06.398Z,3.23
2019-03-18T04:29:06.317Z,3.37
2019-03-18T04:30:06.329Z,3.37
2019-03-18T04:31:06.268Z,3.39
2019-03-18T04:32:06.326Z,3.33
2019-03-18T04:33:06.249Z,3.33
2019-03-18T04:34:06.379Z,3.41
2019-03-18T04:36:07.403Z,3.37
2019-03-18T04:37:06.331Z,3.39
2019-03-18T04:38:06.400Z,3.31
2019-03-18T04:44:23.572Z,3.42
2019-03-18T04:45:23.487Z,3.33
2019-03-18T04:46:23.428Z,3.35
2019-03-18T04:47:23.332Z,3.42
2019-03-18T04:48:23.446Z,3.35
2019-03-18T04:50:24.514Z,3.35
2019-03-18T04:51:23.415Z,3.28
2019-03-18T04:52:23.412Z,3.20
2019-03-18T04:53:23.407Z,3.20
2019-03-18T04:54:23.420Z,3.23
2019-03-18T04:55:23.412Z,3.16
2019-03-18T04:56:23.232Z,3.04
2019-03-18T04:57:23.291Z,3.15
2019-03-18T04:58:23.211Z,3.05
2019-03-18T04:59:23.338Z,3.05
2019-03-18T05:00:23.222Z,3.08
2019-03-18T05:01:23.229Z,3.07
2019-03-18T05:02:23.173Z,3.04
2019-03-18T05:03:23.260Z,3.04
2019-03-18T05:04:23.165Z,3.08
2019-03-18T05:05:23.282Z,2.97
2019-03-18T05:06:23.141Z,3.15
2019-03-18T05:07:23.162Z,3.19
2019-03-18T05:08:23.133Z,3.22
2019-03-18T05:09:23.177Z,3.23
2019-03-18T05:10:23.113Z,3.20
2019-03-18T05:11:23.215Z,3.25
2019-03-18T05:12:23.067Z,3.19
2019-03-18T05:14:24.169Z,3.28
2019-03-18T05:15:23.248Z,3.26
2019-03-18T05:16:23.038Z,3.33
2019-03-18T05:17:26.897Z,3.33
2019-03-18T05:18:23.006Z,3.30
2019-03-18T05:19:23.101Z,3.34
2019-03-18T05:20:23.003Z,3.31
2019-03-18T05:21:23.063Z,3.34
2019-03-18T05:22:22.995Z,3.30
2019-03-18T05:23:23.071Z,3.28
2019-03-18T05:24:22.933Z,3.33
2019-03-18T05:25:24.042Z,3.41
2019-03-18T05:26:22.939Z,3.37
2019-03-18T05:27:22.989Z,3.37
2019-03-18T05:28:22.898Z,3.37
2019-03-18T05:29:22.905Z,3.26
2019-03-18T05:30:22.897Z,3.33
2019-03-18T05:31:22.946Z,3.39
2019-03-18T05:32:22.860Z,3.45
2019-03-18T05:33:22.939Z,3.45
2019-03-18T05:34:22.827Z,3.41
2019-03-18T05:35:23.024Z,3.41
2019-03-18T05:36:22.808Z,3.52
2019-03-18T05:37:22.862Z,3.50
2019-03-18T05:38:22.777Z,3.52
2019-03-18T05:39:22.896Z,3.54
2019-03-18T05:40:22.767Z,3.52
2019-03-18T05:41:22.814Z,3.52
2019-03-18T05:42:22.741Z,3.56
2019-03-18T05:43:22.803Z,3.59
2019-03-18T05:44:22.725Z,3.54
2019-03-18T05:45:22.809Z,3.60
2019-03-18T05:46:22.719Z,3.50
2019-03-18T05:47:22.720Z,3.46
2019-03-18T05:48:22.673Z,3.57
2019-03-18T05:49:22.742Z,3.56
2019-03-18T05:50:22.655Z,3.46
2019-03-18T05:51:22.804Z,3.53
2019-03-18T05:52:22.668Z,3.54
2019-03-18T05:53:22.662Z,3.49
2019-03-18T05:54:22.627Z,3.52
2019-03-18T05:55:22.684Z,3.53
2019-03-18T05:56:22.640Z,3.53
2019-03-18T05:57:22.690Z,3.52
2019-03-18T05:58:22.562Z,3.50
2019-03-18T05:59:22.609Z,3.56
2019-03-18T06:00:22.567Z,3.59
2019-03-18T06:01:22.642Z,3.59
2019-03-18T06:02:22.519Z,3.57
2019-03-18T06:03:22.632Z,3.63
2019-03-18T06:04:22.499Z,3.60
2019-03-18T06:05:22.540Z,3.62
2019-03-18T06:06:22.482Z,3.57
2019-03-18T06:07:22.586Z,3.53
2019-03-18T06:08:22.455Z,3.41
2019-03-18T06:09:22.571Z,3.45
2019-03-18T06:10:22.437Z,3.45
2019-03-18T06:11:22.481Z,3.44
2019-03-18T06:12:22.452Z,3.39
2019-03-18T06:13:22.520Z,3.39
2019-03-18T06:14:22.393Z,3.44
2019-03-18T06:15:22.406Z,3.31
2019-03-18T06:16:22.370Z,3.30
2019-03-18T06:17:22.417Z,3.37
2019-03-18T06:18:22.375Z,3.41
2019-03-18T06:19:22.447Z,3.34
2019-03-18T06:20:22.326Z,3.33
2019-03-18T06:21:22.352Z,3.33
2019-03-18T06:22:22.299Z,3.35
2019-03-18T06:23:23.410Z,3.35
2019-03-18T06:24:22.277Z,3.39
2019-03-18T06:25:22.380Z,3.44
2019-03-18T06:26:22.257Z,3.39
2019-03-18T06:27:22.280Z,3.42
2019-03-18T06:28:22.274Z,3.45
2019-03-18T06:29:22.303Z,3.46
2019-03-18T06:30:22.217Z,3.44
2019-03-18T06:32:23.364Z,3.50
2019-03-18T06:33:22.260Z,3.53
2019-03-18T06:34:22.199Z,3.41
2019-03-18T06:35:22.239Z,3.50
2019-03-18T06:36:22.149Z,3.54
2019-03-18T06:37:22.253Z,3.53
2019-03-18T06:38:22.136Z,3.54
2019-03-18T06:39:22.193Z,3.62
2019-03-18T06:40:22.105Z,3.64
2019-03-18T06:41:22.180Z,3.50
2019-03-18T06:42:22.086Z,3.63
2019-03-18T06:43:22.231Z,3.63
2019-03-18T06:44:22.086Z,3.68
2019-03-18T06:45:22.105Z,3.67
2019-03-18T06:46:22.039Z,3.64
2019-03-18T06:47:22.128Z,3.70
2019-03-18T06:48:22.016Z,3.60
2019-03-18T06:49:22.052Z,3.59
2019-03-18T06:50:21.993Z,3.62
2019-03-18T06:51:22.046Z,3.60
2019-03-18T06:52:21.976Z,3.62
2019-03-18T06:53:22.087Z,3.71
2019-03-18T06:54:22.000Z,3.68
2019-03-18T06:55:21.980Z,3.74
2019-03-18T06:56:21.925Z,3.70
2019-03-18T06:57:21.983Z,3.78
2019-03-18T06:58:21.939Z,3.86
2019-03-18T06:59:21.902Z,3.84
2019-03-18T07:00:21.883Z,3.89
2019-03-18T07:02:22.993Z,4.08
2019-03-18T07:03:21.875Z,4.07
2019-03-18T07:04:21.858Z,4.16
2019-03-18T07:05:21.834Z,4.20
2019-03-18T07:06:21.820Z,4.16
2019-03-18T07:07:21.812Z,4.24
2019-03-18T07:08:21.798Z,4.18
2019-03-18T07:09:21.835Z,4.31
2019-03-18T07:10:21.779Z,4.18
2019-03-18T07:12:22.886Z,4.35
2019-03-18T07:13:21.743Z,4.43
2019-03-18T07:14:21.758Z,4.43
2019-03-18T07:15:21.756Z,4.44
2019-03-18T07:16:21.702Z,4.49
2019-03-18T07:17:21.708Z,4.61
2019-03-18T07:19:22.826Z,4.61
2019-03-18T07:20:21.670Z,4.67
2019-03-18T07:21:21.652Z,4.54
2019-03-18T07:22:21.677Z,4.50
2019-03-18T07:23:21.637Z,4.46
2019-03-18T07:24:21.625Z,4.68
2019-03-18T07:25:21.700Z,4.68
2019-03-18T07:26:21.610Z,4.71
2019-03-18T07:27:21.595Z,4.75
2019-03-18T07:28:21.587Z,4.75
2019-03-18T07:29:21.567Z,4.80
2019-03-18T07:30:21.596Z,4.84
2019-03-18T07:31:21.561Z,4.84
2019-03-18T07:32:21.541Z,4.97
2019-03-18T07:33:21.526Z,5.02
2019-03-18T07:34:21.535Z,5.15
2019-03-18T07:35:21.565Z,5.22
2019-03-18T07:36:21.529Z,5.38
2019-03-18T07:37:21.483Z,5.51
2019-03-18T07:38:21.474Z,5.59
2019-03-18T07:39:21.457Z,5.63
2019-03-18T07:40:21.479Z,5.56
2019-03-18T07:41:21.544Z,5.58
2019-03-18T07:42:21.434Z,5.45
2019-03-18T07:43:21.412Z,5.48
2019-03-18T07:44:21.435Z,5.48
2019-03-18T07:45:21.430Z,5.37
2019-03-18T07:46:21.411Z,5.33
2019-03-18T07:47:21.376Z,5.44
2019-03-18T07:48:30.427Z,5.32
2019-03-18T07:49:22.344Z,5.27
2019-03-18T07:50:21.344Z,5.24
2019-03-18T07:51:21.373Z,5.19
2019-03-18T07:52:21.960Z,5.26
2019-03-18T07:53:21.305Z,5.37
2019-03-18T07:54:32.258Z,5.38
2019-03-18T07:55:22.298Z,5.52
2019-03-18T07:56:21.305Z,5.49
2019-03-18T07:57:21.263Z,5.47
2019-03-18T07:58:22.566Z,5.65
2019-03-18T07:59:21.249Z,5.74
2019-03-18T08:00:21.233Z,5.75
2019-03-18T08:01:21.248Z,5.75
2019-03-18T08:02:21.257Z,5.77
2019-03-18T08:03:21.195Z,5.92
2019-03-18T08:04:21.208Z,5.96
2019-03-18T08:05:21.177Z,5.87
2019-03-18T08:06:21.192Z,5.80
2019-03-18T08:07:21.179Z,5.78
2019-03-18T08:08:21.181Z,5.78
2019-03-18T08:09:21.136Z,5.78
2019-03-18T08:10:21.133Z,5.83
2019-03-18T08:11:21.155Z,5.83
2019-03-18T08:12:21.115Z,5.80
2019-03-18T08:13:21.120Z,5.80
2019-03-18T08:14:21.085Z,5.70
2019-03-18T08:15:21.077Z,5.67
2019-03-18T08:16:21.184Z,5.65
2019-03-18T08:17:21.091Z,5.60
2019-03-18T08:18:21.221Z,5.65
2019-03-18T08:19:21.027Z,5.70
2019-03-18T08:20:21.021Z,5.80
2019-03-18T08:21:21.001Z,5.81
2019-03-18T08:22:21.001Z,5.74
2019-03-18T08:23:21.024Z,5.75
2019-03-18T08:24:20.983Z,5.73
2019-03-18T08:25:20.959Z,5.74
2019-03-18T08:26:20.951Z,5.83
2019-03-18T08:27:20.976Z,5.84
2019-03-18T08:28:20.968Z,5.96
2019-03-18T08:29:20.915Z,5.99
2019-03-18T08:30:20.913Z,6.01
2019-03-18T08:31:20.898Z,6.08
2019-03-18T08:32:20.887Z,6.16
2019-03-18T08:33:20.903Z,6.30
2019-03-18T08:34:20.892Z,6.42
2019-03-18T08:35:20.857Z,6.61
2019-03-18T08:36:20.868Z,6.75
2019-03-18T08:37:20.829Z,6.76
2019-03-18T08:38:20.855Z,6.78
2019-03-18T08:39:20.817Z,6.82
2019-03-18T08:40:20.833Z,6.71
2019-03-18T08:41:20.788Z,6.78
2019-03-18T08:42:20.785Z,6.78
2019-03-18T08:43:20.785Z,6.94
2019-03-18T08:44:20.761Z,7.05
2019-03-18T08:45:20.757Z,7.09
2019-03-18T08:46:20.747Z,7.07
2019-03-18T08:47:20.722Z,6.97
2019-03-18T08:48:20.743Z,6.93
2019-03-18T08:49:20.702Z,6.91
2019-03-18T08:50:20.698Z,6.96
2019-03-18T08:51:20.687Z,6.90
2019-03-18T08:52:20.683Z,6.91
2019-03-18T08:53:20.732Z,7.05
2019-03-18T08:54:20.663Z,7.08
2019-03-18T08:55:20.648Z,7.07
2019-03-18T08:56:20.644Z,7.12
2019-03-18T08:57:20.644Z,7.23
2019-03-18T08:58:20.618Z,7.26
2019-03-18T08:59:20.623Z,7.18
2019-03-18T09:00:20.601Z,7.18
2019-03-18T09:01:20.602Z,7.48
2019-03-18T09:03:21.708Z,7.55
2019-03-18T09:04:20.580Z,7.73
2019-03-18T09:05:20.531Z,7.96
2019-03-18T09:06:20.524Z,7.95
2019-03-18T09:07:20.512Z,7.91
2019-03-18T09:08:20.505Z,8.12
2019-03-18T09:09:20.522Z,7.99
2019-03-18T09:10:20.490Z,7.77
2019-03-18T09:11:20.460Z,7.81
2019-03-18T09:12:20.459Z,7.81
2019-03-18T09:13:20.441Z,7.73
2019-03-18T09:14:20.462Z,7.58
2019-03-18T09:15:20.424Z,7.48
2019-03-18T09:16:20.422Z,7.47
2019-03-18T09:17:20.401Z,7.47
2019-03-18T09:18:20.412Z,7.44
2019-03-18T09:19:20.406Z,7.37
2019-03-18T09:20:20.370Z,7.48
2019-03-18T09:21:20.355Z,7.52
2019-03-18T09:22:20.346Z,7.74
2019-03-18T09:23:20.325Z,7.82
2019-03-18T09:24:20.408Z,7.79
2019-03-18T09:25:20.308Z,7.81
2019-03-18T09:26:20.304Z,7.89
2019-03-18T09:27:20.291Z,7.91
2019-03-18T09:28:22.291Z,7.77
2019-03-18T09:29:20.261Z,7.89
2019-03-18T09:30:20.300Z,7.77
2019-03-18T09:31:20.364Z,7.69
2019-03-18T09:32:20.247Z,7.54
2019-03-18T09:33:20.225Z,7.60
2019-03-18T09:34:20.210Z,7.47
2019-03-18T09:35:20.237Z,7.50
2019-03-18T09:36:20.207Z,7.41
2019-03-18T09:37:20.172Z,7.41
2019-03-18T09:38:20.168Z,7.42
2019-03-18T09:39:20.161Z,7.60
2019-03-18T09:40:20.176Z,7.74
2019-03-18T09:41:20.138Z,7.89
2019-03-18T09:42:20.129Z,7.96
2019-03-18T09:43:20.119Z,7.77
2019-03-18T09:44:20.100Z,7.74
2019-03-18T09:45:20.114Z,7.76
2019-03-18T09:46:20.086Z,7.69
2019-03-18T09:47:20.071Z,7.89
2019-03-18T09:48:20.077Z,8.09
2019-03-18T09:49:22.048Z,8.18
2019-03-18T09:50:20.095Z,8.37
2019-03-18T09:51:20.028Z,8.40
2019-03-18T09:52:20.041Z,8.46
2019-03-18T09:53:19.997Z,8.18
2019-03-18T09:54:19.999Z,8.10
2019-03-18T09:55:20.010Z,8.24
2019-03-18T09:56:19.970Z,8.32
2019-03-18T09:57:25.804Z,8.29
2019-03-18T09:58:20.955Z,8.28
2019-03-18T09:59:19.941Z,8.24
2019-03-18T10:00:19.964Z,8.14
2019-03-18T10:01:19.916Z,8.22
2019-03-18T10:02:19.919Z,8.27
2019-03-18T10:03:19.906Z,8.28
2019-03-18T10:04:19.892Z,8.10
2019-03-18T10:05:19.874Z,8.27
2019-03-18T10:06:19.899Z,8.36
2019-03-18T10:07:19.852Z,8.13
2019-03-18T10:08:19.843Z,7.96
2019-03-18T10:09:19.830Z,7.85
2019-03-18T10:10:19.821Z,7.57
2019-03-18T10:11:19.835Z,7.63
2019-03-18T10:12:19.825Z,7.79
2019-03-18T10:13:19.787Z,7.94
2019-03-18T10:14:19.938Z,8.20
2019-03-18T10:15:19.771Z,8.32
2019-03-18T10:16:19.795Z,8.49
2019-03-18T10:17:19.739Z,8.68
2019-03-18T10:18:19.776Z,8.75
2019-03-18T10:19:19.717Z,8.91
2019-03-18T10:20:19.716Z,8.83
2019-03-18T10:21:19.727Z,8.76
2019-03-18T10:22:19.699Z,8.83
2019-03-18T10:23:19.676Z,8.89
2019-03-18T10:24:19.674Z,8.89
2019-03-18T10:25:19.654Z,9.12
2019-03-18T10:26:19.692Z,9.40
2019-03-18T10:27:19.638Z,9.35
2019-03-18T10:28:19.627Z,9.37
2019-03-18T10:29:19.645Z,9.40
2019-03-18T10:30:19.607Z,9.12
2019-03-18T10:31:19.628Z,9.08
2019-03-18T10:32:19.585Z,9.26
2019-03-18T10:33:19.569Z,9.24
2019-03-18T10:34:19.561Z,9.26
2019-03-18T10:35:19.543Z,9.22
2019-03-18T10:36:19.600Z,9.13
2019-03-18T10:37:19.526Z,9.19
2019-03-18T10:38:19.515Z,9.22
2019-03-18T10:39:19.499Z,9.16
2019-03-18T10:40:19.504Z,9.23
2019-03-18T10:41:19.477Z,9.17
2019-03-18T10:42:19.500Z,9.19
2019-03-18T10:43:19.467Z,9.30
2019-03-18T10:44:19.453Z,9.27
2019-03-18T10:45:19.438Z,9.52
2019-03-18T10:46:19.429Z,9.55
2019-03-18T10:47:19.444Z,9.12
2019-03-18T10:48:19.410Z,9.13
2019-03-18T10:49:19.393Z,9.27
2019-03-18T10:50:19.394Z,9.42
2019-03-18T10:51:19.373Z,9.67
2019-03-18T10:52:19.421Z,9.80
2019-03-18T10:53:19.434Z,9.88
2019-03-18T10:54:30.366Z,9.85
2019-03-18T10:55:20.334Z,9.80
2019-03-18T10:56:19.327Z,9.59
2019-03-18T10:57:19.336Z,9.58
2019-03-18T10:58:19.307Z,9.59
2019-03-18T10:59:19.285Z,9.52
2019-03-18T11:00:19.340Z,9.32
2019-03-18T11:01:19.262Z,9.49
2019-03-18T11:02:19.257Z,9.60
2019-03-18T11:03:19.270Z,9.56
2019-03-18T11:04:19.243Z,9.59
2019-03-18T11:05:19.226Z,9.62
2019-03-18T11:06:19.213Z,9.67
2019-03-18T11:07:19.196Z,9.85
2019-03-18T11:08:19.228Z,10.11
2019-03-18T11:09:19.180Z,10.18
2019-03-18T11:10:19.176Z,10.20
2019-03-18T11:11:19.175Z,10.18
2019-03-18T11:12:19.146Z,10.25
2019-03-18T11:13:19.156Z,10.43
2019-03-18T11:14:19.161Z,10.62
2019-03-18T11:15:19.110Z,10.86
2019-03-18T11:16:19.119Z,10.75
2019-03-18T11:17:19.094Z,10.83
2019-03-18T11:18:19.121Z,10.95
2019-03-18T11:19:19.060Z,11.17
2019-03-18T11:20:19.086Z,11.17
2019-03-18T11:21:19.089Z,11.12
2019-03-18T11:22:19.036Z,11.42
2019-03-18T11:23:19.117Z,11.36
2019-03-18T11:24:19.018Z,11.20
2019-03-18T11:25:19.008Z,10.86
2019-03-18T11:26:19.011Z,10.70
2019-03-18T11:27:18.986Z,10.58
2019-03-18T11:28:19.005Z,10.54
2019-03-18T11:29:19.100Z,10.38
2019-03-18T11:30:18.972Z,10.14
2019-03-18T11:31:18.944Z,9.99
2019-03-18T11:32:18.951Z,9.89
2019-03-18T11:33:18.917Z,9.89
2019-03-18T11:34:18.937Z,9.83
2019-03-18T11:35:18.896Z,9.78
2019-03-18T11:36:18.894Z,9.83
2019-03-18T11:37:18.879Z,9.85
2019-03-18T11:38:18.867Z,9.81
2019-03-18T11:39:18.898Z,9.70
2019-03-18T11:41:20.046Z,9.55
2019-03-18T11:42:18.821Z,9.45
2019-03-18T11:43:18.808Z,9.52
2019-03-18T11:45:19.933Z,9.49
2019-03-18T11:46:18.899Z,9.56
2019-03-18T11:47:18.906Z,9.50
2019-03-18T11:48:18.883Z,9.50
2019-03-18T11:49:18.887Z,9.55
2019-03-18T11:50:18.885Z,9.77
2019-03-18T11:51:18.726Z,9.88
2019-03-18T11:52:18.713Z,9.89
2019-03-18T11:53:18.721Z,9.68
2019-03-18T11:54:18.808Z,9.58
2019-03-18T11:55:18.738Z,9.40
2019-03-18T11:56:18.681Z,9.26
2019-03-18T11:57:18.658Z,9.17
2019-03-18T11:58:18.673Z,9.08
2019-03-18T11:59:20.800Z,9.16
2019-03-18T12:00:18.651Z,9.01
2019-03-18T12:01:18.613Z,9.01
2019-03-18T12:02:27.666Z,8.73
2019-03-18T12:03:19.609Z,8.76
2019-03-18T12:04:18.601Z,8.75
2019-03-18T12:05:18.591Z,8.78
2019-03-18T12:06:18.611Z,8.73
2019-03-18T12:07:18.550Z,8.80
2019-03-18T12:08:18.547Z,8.85
2019-03-18T12:09:18.536Z,8.91
2019-03-18T12:10:18.544Z,8.91
2019-03-18T12:11:18.512Z,9.06
2019-03-18T12:12:18.498Z,9.08
2019-03-18T12:13:18.491Z,9.10
2019-03-18T12:14:18.476Z,9.24
2019-03-18T12:15:21.416Z,9.44
2019-03-18T12:17:19.587Z,9.88
2019-03-18T12:19:19.546Z,9.98
2019-03-18T12:20:24.705Z,9.95
2019-03-18T12:21:18.425Z,9.86
2019-03-18T12:22:22.100Z,9.83
2019-03-18T12:23:18.367Z,9.88
2019-03-18T12:24:22.244Z,9.98
2019-03-18T12:25:18.361Z,10.31
2019-03-18T12:26:22.367Z,10.51
2019-03-18T12:27:18.349Z,10.80
2019-03-18T12:29:18.596Z,11.03
2019-03-18T12:31:18.344Z,10.73
2019-03-18T12:32:18.847Z,10.46
2019-03-18T12:33:18.280Z,10.29
2019-03-18T12:34:20.440Z,10.10
2019-03-18T12:35:18.420Z,10.10
2019-03-18T12:36:18.362Z,10.02
2019-03-18T12:37:18.244Z,9.86
2019-03-18T12:38:18.313Z,9.70
2019-03-18T12:39:18.262Z,9.67
2019-03-18T12:40:18.274Z,9.67
2019-03-18T12:41:18.171Z,9.52
2019-03-18T12:42:18.278Z,9.52
2019-03-18T12:43:18.155Z,9.44
2019-03-18T12:44:18.250Z,9.44
2019-03-18T12:45:18.157Z,9.27
2019-03-18T12:46:18.192Z,9.08
2019-03-18T12:47:18.157Z,8.57
2019-03-18T12:48:18.178Z,8.25
2019-03-18T12:49:18.087Z,7.96
2019-03-18T12:50:18.213Z,7.48
2019-03-18T12:51:18.087Z,7.23
2019-03-18T12:52:18.241Z,6.72
2019-03-18T12:53:18.045Z,6.35
2019-03-18T12:54:18.123Z,6.16
2019-03-18T12:55:18.065Z,6.20
2019-03-18T12:56:18.127Z,6.19
2019-03-18T12:57:18.071Z,6.20
2019-03-18T12:58:18.057Z,6.32
2019-03-18T12:59:17.977Z,6.53
2019-03-18T13:00:18.083Z,6.61
2019-03-18T13:01:17.957Z,6.73
2019-03-18T13:02:18.015Z,6.96
2019-03-18T13:03:17.937Z,7.00
2019-03-18T13:04:17.990Z,7.14
2019-03-18T13:05:17.912Z,7.36
2019-03-18T13:06:17.995Z,7.52
2019-03-18T13:07:17.916Z,7.79
2019-03-18T13:08:17.956Z,7.91
2019-03-18T13:09:17.872Z,8.17
2019-03-18T13:10:21.291Z,8.24
2019-03-18T13:11:17.855Z,8.39
2019-03-18T13:12:17.993Z,8.52
2019-03-18T13:13:17.857Z,8.68
2019-03-18T13:14:17.848Z,8.82
2019-03-18T13:15:17.812Z,9.16
2019-03-18T13:16:18.338Z,9.38
2019-03-18T13:17:17.783Z,9.62
2019-03-18T13:18:17.911Z,9.80
2019-03-18T13:19:17.790Z,10.17
2019-03-18T13:20:17.787Z,10.31
2019-03-18T13:21:17.737Z,10.52
2019-03-18T13:22:17.804Z,10.66
2019-03-18T13:23:17.755Z,10.84
2019-03-18T13:24:17.819Z,11.08
2019-03-18T13:25:17.698Z,11.06
2019-03-18T13:26:17.743Z,11.12
2019-03-18T13:27:17.673Z,11.11
2019-03-18T13:28:17.773Z,11.11
2019-03-18T13:29:17.651Z,11.09
2019-03-18T13:31:18.762Z,10.57
2019-03-18T13:32:17.664Z,10.42
2019-03-18T13:33:17.701Z,10.20
2019-03-18T13:34:17.686Z,10.22
2019-03-18T13:35:17.589Z,10.14
2019-03-18T13:36:17.713Z,10.17
2019-03-18T13:37:17.561Z,10.62
2019-03-18T13:38:17.675Z,10.99
2019-03-18T13:39:17.569Z,11.26
2019-03-18T13:40:17.635Z,11.41
2019-03-18T13:41:17.552Z,11.57
2019-03-18T13:42:17.551Z,11.56
2019-03-18T13:43:17.577Z,11.59
2019-03-18T13:44:17.493Z,11.19
2019-03-18T13:45:17.471Z,11.17
2019-03-18T13:46:18.653Z,11.12